createdAt,value
2017-10-14T00:02:17.739Z,18.07
2017-10-14T00:04:46.408Z,19.20
2017-10-14T00:07:15.026Z,25.03
2017-10-14T00:09:43.681Z,28.53
2017-10-14T00:12:12.212Z,19.53
2017-10-14T00:14:40.830Z,26.10
2017-10-14T00:17:09.462Z,21.80
2017-10-14T00:19:38.126Z,20.97
2017-10-14T00:22:06.780Z,33.70
2017-10-14T00:24:35.400Z,26.60
2017-10-14T00:27:04.092Z,22.40
2017-10-14T00:29:32.707Z,29.53
2017-10-14T00:32:01.415Z,25.37
2017-10-14T00:34:30.055Z,26.40
2017-10-14T00:36:58.699Z,24.73
2017-10-14T00:39:27.384Z,28.93
2017-10-14T00:41:55.998Z,23.30
2017-10-14T00:44:24.631Z,28.07
2017-10-14T00:46:53.316Z,27.40
2017-10-14T00:49:21.956Z,24.77
2017-10-14T00:51:50.595Z,22.27
2017-10-14T00:54:19.303Z,26.80
2017-10-14T00:56:47.623Z,27.77
2017-10-14T00:59:16.003Z,28.40
2017-10-14T01:01:44.626Z,27.63
2017-10-14T01:04:13.285Z,32.13
2017-10-14T01:06:41.390Z,24.53
2017-10-14T01:09:10.087Z,37.33
2017-10-14T01:11:38.764Z,26.70
2017-10-14T01:14:07.394Z,33.83
2017-10-14T01:16:36.086Z,28.90
2017-10-14T01:19:04.727Z,31.33
2017-10-14T01:21:33.399Z,41.57
2017-10-14T01:24:01.751Z,28.43
2017-10-14T01:26:40.242Z,31.37
2017-10-14T01:29:08.454Z,29.40
2017-10-14T01:31:37.126Z,28.77
2017-10-14T01:34:05.438Z,29.33
2017-10-14T01:36:33.810Z,32.57
2017-10-14T01:39:02.539Z,43.77
2017-10-14T01:41:31.196Z,25.10
2017-10-14T01:43:59.890Z,29.33
2017-10-14T01:46:28.198Z,28.20
2017-10-14T01:48:56.888Z,31.17
2017-10-14T01:51:25.206Z,26.50
2017-10-14T01:53:53.567Z,39.90
2017-10-14T01:56:21.913Z,29.60
2017-10-14T01:58:50.619Z,29.90
2017-10-14T02:01:19.240Z,29.03
2017-10-14T02:03:47.858Z,29.10
2017-10-14T02:06:16.520Z,26.20
2017-10-14T02:08:45.222Z,27.43
2017-10-14T02:11:13.908Z,29.37
2017-10-14T02:13:42.534Z,26.33
2017-10-14T02:16:11.237Z,27.83
2017-10-14T02:18:39.876Z,33.43
2017-10-14T02:21:08.627Z,23.90
2017-10-14T02:23:37.267Z,21.77
2017-10-14T02:26:05.887Z,30.40
2017-10-14T02:28:34.565Z,30.20
2017-10-14T02:31:03.241Z,20.47
2017-10-14T02:33:31.912Z,23.63
2017-10-14T02:36:00.626Z,31.07
2017-10-14T02:38:29.254Z,22.20
2017-10-14T02:40:57.870Z,27.67
2017-10-14T02:43:26.556Z,30.03
2017-10-14T02:45:55.205Z,24.23
2017-10-14T02:48:23.831Z,25.13
2017-10-14T02:50:52.489Z,23.23
2017-10-14T02:53:21.113Z,27.93
2017-10-14T02:55:49.760Z,26.27
2017-10-14T02:58:18.455Z,26.30
2017-10-14T03:00:47.086Z,32.13
2017-10-14T03:03:15.782Z,22.57
2017-10-14T03:05:44.408Z,28.30
2017-10-14T03:08:13.050Z,27.20
2017-10-14T03:10:41.705Z,23.23
2017-10-14T03:13:10.309Z,31.63
2017-10-14T03:15:38.981Z,24.37
2017-10-14T03:18:07.682Z,39.63
2017-10-14T03:20:36.350Z,24.10
2017-10-14T03:23:04.965Z,20.63
2017-10-14T03:25:33.663Z,28.70
2017-10-14T03:28:02.322Z,31.03
2017-10-14T03:30:30.998Z,22.53
2017-10-14T03:33:01.340Z,21.70
2017-10-14T03:35:30.016Z,29.73
2017-10-14T03:37:58.634Z,24.73
2017-10-14T03:40:27.307Z,24.57
2017-10-14T03:42:55.927Z,24.83
2017-10-14T03:45:24.598Z,25.67
2017-10-14T03:47:53.214Z,20.33
2017-10-14T03:50:21.833Z,26.80
2017-10-14T03:52:50.495Z,24.53
2017-10-14T03:55:19.122Z,24.00
2017-10-14T03:57:47.791Z,25.40
2017-10-14T04:00:16.523Z,36.40
2017-10-14T04:02:45.150Z,26.40
2017-10-14T04:05:13.770Z,25.30
2017-10-14T04:07:42.526Z,20.90
2017-10-14T04:10:11.173Z,26.70
2017-10-14T04:12:39.835Z,34.33
2017-10-14T04:15:08.486Z,20.63
2017-10-14T04:17:38.531Z,18.90
2017-10-14T04:20:07.216Z,24.43
2017-10-14T04:22:35.895Z,25.67
2017-10-14T04:25:04.510Z,20.90
2017-10-14T04:27:37.306Z,20.27
2017-10-14T04:30:05.929Z,22.27
2017-10-14T04:32:34.552Z,24.93
2017-10-14T04:35:03.214Z,29.13
2017-10-14T04:37:35.752Z,26.73
2017-10-14T04:40:04.423Z,32.97
2017-10-14T04:42:33.110Z,25.30
2017-10-14T04:45:01.763Z,24.50
2017-10-14T04:47:30.422Z,28.97
2017-10-14T04:49:59.048Z,25.23
2017-10-14T04:52:27.708Z,29.60
2017-10-14T04:54:56.346Z,21.10
2017-10-14T04:57:25.028Z,23.50
2017-10-14T05:00:10.008Z,25.90
2017-10-14T05:02:39.538Z,35.83
2017-10-14T05:05:08.187Z,25.17
2017-10-14T05:07:38.446Z,22.10
2017-10-14T05:10:07.192Z,27.93
2017-10-14T05:12:35.821Z,29.07
2017-10-14T05:15:04.302Z,23.10
2017-10-14T05:17:40.068Z,23.10
2017-10-14T05:20:08.723Z,20.87
2017-10-14T05:22:37.243Z,24.90
2017-10-14T05:25:05.862Z,21.10
2017-10-14T05:27:37.869Z,21.90
2017-10-14T05:30:06.552Z,26.00
2017-10-14T05:32:35.087Z,25.17
2017-10-14T05:35:03.562Z,27.87
2017-10-14T05:37:35.195Z,28.73
2017-10-14T05:40:03.656Z,31.77
2017-10-14T05:42:32.318Z,27.37
2017-10-14T05:45:00.946Z,25.10
2017-10-14T05:47:29.598Z,20.97
2017-10-14T05:49:58.211Z,28.90
2017-10-14T05:52:26.879Z,26.27
2017-10-14T05:54:55.511Z,22.73
2017-10-14T05:57:24.170Z,31.03
2017-10-14T05:59:52.883Z,23.63
2017-10-14T06:02:21.507Z,24.07
2017-10-14T06:04:50.183Z,26.83
2017-10-14T06:07:18.799Z,26.50
2017-10-14T06:09:47.467Z,25.83
2017-10-14T06:12:16.094Z,23.80
2017-10-14T06:14:44.759Z,35.43
2017-10-14T06:17:13.402Z,26.50
2017-10-14T06:19:42.072Z,25.07
2017-10-14T06:22:10.726Z,27.20
2017-10-14T06:24:39.357Z,25.33
2017-10-14T06:27:08.029Z,25.80
2017-10-14T06:29:36.647Z,25.53
2017-10-14T06:32:05.279Z,23.77
2017-10-14T06:34:33.943Z,27.10
2017-10-14T06:37:02.576Z,30.70
2017-10-14T06:39:31.256Z,25.83
2017-10-14T06:41:59.926Z,23.93
2017-10-14T06:44:28.470Z,29.03
2017-10-14T06:46:57.095Z,23.80
2017-10-14T06:49:25.726Z,24.83
2017-10-14T06:51:54.428Z,26.47
2017-10-14T06:54:23.110Z,31.60
2017-10-14T06:56:51.774Z,33.10
2017-10-14T06:59:20.421Z,25.13
2017-10-14T07:01:49.083Z,21.00
2017-10-14T07:04:17.739Z,30.73
2017-10-14T07:06:46.382Z,33.03
2017-10-14T07:09:15.057Z,23.07
2017-10-14T07:11:43.684Z,35.80
2017-10-14T07:14:12.374Z,21.30
2017-10-14T07:16:41.041Z,25.77
2017-10-14T07:19:09.678Z,21.20
2017-10-14T07:21:38.346Z,29.13
2017-10-14T07:24:06.963Z,30.30
2017-10-14T07:26:35.627Z,21.93
2017-10-14T07:29:04.246Z,28.93
2017-10-14T07:31:32.899Z,24.37
2017-10-14T07:34:01.513Z,32.23
2017-10-14T07:36:30.183Z,23.57
2017-10-14T07:38:58.861Z,22.80
2017-10-14T07:41:27.561Z,20.43
2017-10-14T07:43:56.182Z,19.97
2017-10-14T07:46:24.852Z,20.03
2017-10-14T07:48:53.479Z,21.53
2017-10-14T07:51:22.164Z,16.07
2017-10-14T07:53:50.785Z,23.13
2017-10-14T07:56:19.402Z,18.80
2017-10-14T07:58:48.082Z,22.83
2017-10-14T08:01:16.555Z,24.10
2017-10-14T08:03:45.034Z,21.53
2017-10-14T08:06:13.709Z,26.63
2017-10-14T08:08:42.326Z,26.30
2017-10-14T08:11:10.836Z,34.40
2017-10-14T08:13:39.443Z,24.43
2017-10-14T08:16:08.108Z,20.20
2017-10-14T08:18:36.742Z,26.50
2017-10-14T08:21:05.435Z,28.93
2017-10-14T08:23:34.039Z,25.10
2017-10-14T08:26:02.728Z,25.67
2017-10-14T08:28:31.200Z,23.63
2017-10-14T08:31:00.001Z,21.10
2017-10-14T08:33:28.634Z,18.73
2017-10-14T08:36:11.800Z,21.77
2017-10-14T08:38:41.283Z,19.10
2017-10-14T08:41:09.989Z,23.87
2017-10-14T08:43:38.665Z,24.63
2017-10-14T08:46:07.298Z,28.13
2017-10-14T08:48:35.948Z,26.97
2017-10-14T08:51:04.632Z,26.10
2017-10-14T08:53:33.265Z,19.40
2017-10-14T08:56:01.935Z,18.30
2017-10-14T08:58:30.546Z,19.10
2017-10-14T09:00:59.230Z,16.53
2017-10-14T09:03:27.744Z,15.87
2017-10-14T09:05:56.362Z,20.47
2017-10-14T09:08:25.031Z,29.07
2017-10-14T09:10:53.645Z,19.43
2017-10-14T09:13:22.318Z,18.47
2017-10-14T09:15:50.938Z,26.10
2017-10-14T09:18:19.608Z,20.03
2017-10-14T09:20:48.307Z,24.67
2017-10-14T09:23:16.958Z,22.97
2017-10-14T09:25:45.471Z,17.30
2017-10-14T09:28:14.005Z,19.60
2017-10-14T09:30:42.684Z,23.90
2017-10-14T09:33:11.336Z,23.87
2017-10-14T09:35:39.975Z,28.73
2017-10-14T09:38:08.671Z,18.40
2017-10-14T09:40:37.196Z,26.57
2017-10-14T09:43:05.906Z,27.83
2017-10-14T09:45:34.524Z,19.80
2017-10-14T09:48:03.183Z,23.10
2017-10-14T09:50:31.794Z,26.73
2017-10-14T09:53:00.454Z,24.23
2017-10-14T09:55:29.107Z,22.33
2017-10-14T09:57:57.745Z,23.00
2017-10-14T10:00:26.414Z,21.10
2017-10-14T10:02:55.037Z,16.73
2017-10-14T10:05:23.662Z,23.97
2017-10-14T10:07:52.328Z,30.13
2017-10-14T10:10:20.938Z,14.10
2017-10-14T10:12:49.593Z,26.77
2017-10-14T10:15:18.222Z,20.50
2017-10-14T10:17:46.883Z,24.67
2017-10-14T10:20:15.515Z,18.50
2017-10-14T10:22:44.176Z,22.60
2017-10-14T10:25:12.851Z,15.00
2017-10-14T10:27:41.540Z,16.00
2017-10-14T10:30:10.171Z,24.37
2017-10-14T10:32:38.697Z,21.40
2017-10-14T10:35:07.324Z,12.27
2017-10-14T10:37:36.207Z,20.33
2017-10-14T10:40:04.864Z,20.30
2017-10-14T10:42:33.527Z,17.53
2017-10-14T10:45:02.147Z,19.87
2017-10-14T10:47:35.380Z,14.43
2017-10-14T10:50:04.007Z,17.47
2017-10-14T10:52:32.676Z,30.63
2017-10-14T10:55:01.298Z,21.80
2017-10-14T10:57:31.540Z,27.60
2017-10-14T11:00:00.255Z,17.30
2017-10-14T11:02:28.879Z,18.20
2017-10-14T11:04:57.558Z,20.90
2017-10-14T11:07:26.187Z,18.40
2017-10-14T11:09:54.843Z,17.57
2017-10-14T11:12:23.479Z,19.73
2017-10-14T11:14:52.163Z,22.53
2017-10-14T11:17:20.815Z,16.33
2017-10-14T11:19:49.474Z,22.77
2017-10-14T11:22:18.094Z,22.10
2017-10-14T11:24:46.716Z,40.00
2017-10-14T11:27:15.374Z,19.47
2017-10-14T11:29:43.979Z,20.03
2017-10-14T11:32:12.667Z,16.13
2017-10-14T11:34:41.291Z,21.30
2017-10-14T11:37:09.926Z,20.80
2017-10-14T11:39:38.615Z,19.20
2017-10-14T11:42:07.226Z,23.13
2017-10-14T11:44:35.892Z,21.93
2017-10-14T11:47:04.526Z,22.87
2017-10-14T11:49:33.211Z,19.83
2017-10-14T11:52:01.959Z,22.13
2017-10-14T11:54:30.579Z,18.10
2017-10-14T11:56:59.247Z,19.43
2017-10-14T11:59:27.871Z,23.97
2017-10-14T12:01:56.534Z,17.17
2017-10-14T12:04:25.179Z,24.03
2017-10-14T12:06:53.847Z,23.00
2017-10-14T12:09:22.524Z,24.30
2017-10-14T12:11:53.877Z,23.63
2017-10-14T12:14:22.498Z,30.33
2017-10-14T12:16:51.133Z,44.33
2017-10-14T12:19:19.802Z,28.43
2017-10-14T12:21:48.421Z,30.87
2017-10-14T12:24:17.034Z,27.10
2017-10-14T12:26:45.703Z,32.33
2017-10-14T12:29:14.374Z,27.80
2017-10-14T12:31:43.017Z,29.53
2017-10-14T12:34:11.679Z,31.57
2017-10-14T12:36:40.355Z,32.40
2017-10-14T12:39:09.006Z,27.93
2017-10-14T12:41:37.691Z,27.30
2017-10-14T12:44:06.326Z,28.80
2017-10-14T12:46:34.983Z,40.77
2017-10-14T12:49:03.652Z,30.87
2017-10-14T12:51:32.288Z,36.60
2017-10-14T12:54:00.954Z,29.37
2017-10-14T12:56:29.592Z,40.00
2017-10-14T12:58:58.265Z,40.13
2017-10-14T13:01:26.902Z,35.40
2017-10-14T13:03:55.579Z,33.77
2017-10-14T13:06:24.198Z,36.87
2017-10-14T13:08:52.871Z,35.50
2017-10-14T13:11:21.526Z,37.60
2017-10-14T13:13:50.167Z,28.60
2017-10-14T13:16:18.793Z,39.57
2017-10-14T13:18:47.471Z,44.63
2017-10-14T13:21:16.104Z,39.57
2017-10-14T13:23:44.758Z,36.90
2017-10-14T13:26:13.371Z,34.47
2017-10-14T13:28:42.022Z,42.83
2017-10-14T13:31:10.651Z,36.77
2017-10-14T13:33:39.274Z,32.93
2017-10-14T13:36:07.929Z,35.80
2017-10-14T13:38:36.558Z,39.27
2017-10-14T13:41:05.179Z,40.17
2017-10-14T13:43:33.839Z,36.40
2017-10-14T13:46:02.465Z,37.83
2017-10-14T13:48:31.163Z,38.87
2017-10-14T13:50:59.786Z,35.40
2017-10-14T13:53:28.458Z,53.63
2017-10-14T13:55:57.083Z,45.90
2017-10-14T13:58:25.714Z,40.57
2017-10-14T14:00:54.383Z,43.73
2017-10-14T14:03:23.004Z,43.00
2017-10-14T14:05:51.684Z,46.90
2017-10-14T14:08:20.310Z,44.27
2017-10-14T14:10:48.934Z,48.37
2017-10-14T14:13:17.592Z,37.40
2017-10-14T14:15:46.219Z,51.67
2017-10-14T14:18:14.889Z,54.80
2017-10-14T14:20:43.575Z,50.20
2017-10-14T14:23:12.236Z,50.53
2017-10-14T14:25:40.722Z,51.00
2017-10-14T14:28:09.267Z,46.17
2017-10-14T14:30:37.766Z,39.60
2017-10-14T14:33:06.281Z,49.40
2017-10-14T14:35:34.987Z,43.40
2017-10-14T14:38:03.510Z,45.97
2017-10-14T14:40:31.995Z,44.10
2017-10-14T14:43:00.466Z,52.63
2017-10-14T14:45:29.121Z,51.93
2017-10-14T14:47:57.754Z,55.23
2017-10-14T14:50:26.415Z,50.33
2017-10-14T14:52:55.031Z,52.33
2017-10-14T14:55:23.686Z,58.67
2017-10-14T14:57:52.366Z,43.27
2017-10-14T15:00:21.014Z,46.10
2017-10-14T15:02:49.639Z,57.23
2017-10-14T15:05:18.294Z,52.30
2017-10-14T15:07:46.921Z,57.53
2017-10-14T15:10:15.591Z,53.93
2017-10-14T15:12:44.232Z,53.40
2017-10-14T15:15:12.879Z,51.80
2017-10-14T15:17:41.505Z,55.23
2017-10-14T15:20:10.169Z,52.60
2017-10-14T15:22:38.804Z,57.10
2017-10-14T15:25:07.458Z,46.07
2017-10-14T15:27:36.424Z,49.47
2017-10-14T15:30:05.119Z,63.37
2017-10-14T15:32:33.739Z,51.47
2017-10-14T15:35:02.261Z,56.63
2017-10-14T15:37:32.541Z,53.90
2017-10-14T15:40:01.212Z,47.83
2017-10-14T15:42:29.914Z,44.93
2017-10-14T15:44:58.546Z,38.33
2017-10-14T15:47:27.199Z,47.53
2017-10-14T15:49:55.883Z,42.13
2017-10-14T15:52:24.498Z,40.63
2017-10-14T15:54:53.157Z,39.63
2017-10-14T15:57:21.630Z,42.63
2017-10-14T15:59:50.298Z,40.70
2017-10-14T16:02:18.926Z,34.00
2017-10-14T16:04:47.603Z,37.10
2017-10-14T16:07:16.214Z,45.57
2017-10-14T16:09:44.867Z,37.40
2017-10-14T16:12:13.482Z,37.57
2017-10-14T16:14:42.147Z,36.03
2017-10-14T16:17:10.762Z,43.73
2017-10-14T16:19:39.423Z,41.70
2017-10-14T16:22:08.086Z,41.90
2017-10-14T16:24:36.698Z,37.63
2017-10-14T16:27:05.354Z,36.60
2017-10-14T16:29:33.855Z,41.80
2017-10-14T16:32:02.475Z,34.93
2017-10-14T16:34:31.134Z,35.83
2017-10-14T16:36:59.764Z,40.10
2017-10-14T16:39:28.376Z,37.20
2017-10-14T16:41:57.058Z,31.00
2017-10-14T16:44:25.678Z,30.00
2017-10-14T16:46:54.294Z,29.30
2017-10-14T16:49:22.953Z,28.60
2017-10-14T16:51:51.611Z,30.33
2017-10-14T16:54:20.311Z,26.47
2017-10-14T16:56:48.946Z,32.80
2017-10-14T16:59:17.584Z,28.30
2017-10-14T17:01:46.249Z,28.37
2017-10-14T17:04:14.888Z,32.60
2017-10-14T17:06:43.574Z,40.90
2017-10-14T17:09:12.198Z,27.87
2017-10-14T17:11:40.858Z,27.83
2017-10-14T17:14:09.531Z,32.13
2017-10-14T17:16:38.159Z,33.10
2017-10-14T17:19:06.829Z,28.33
2017-10-14T17:21:35.528Z,28.77
2017-10-14T17:24:04.194Z,34.17
2017-10-14T17:26:32.809Z,35.57
2017-10-14T17:29:01.494Z,26.97
2017-10-14T17:31:30.109Z,27.37
2017-10-14T17:33:58.806Z,26.83
2017-10-14T17:36:34.127Z,27.70
2017-10-14T17:39:02.811Z,23.10
2017-10-14T17:41:31.419Z,29.63
2017-10-14T17:44:00.045Z,24.17
2017-10-14T17:46:28.714Z,23.60
2017-10-14T17:48:57.384Z,23.60
2017-10-14T17:51:26.011Z,30.30
2017-10-14T17:53:54.617Z,28.83
2017-10-14T17:56:23.285Z,28.97
2017-10-14T17:58:51.902Z,26.10
2017-10-14T18:01:20.563Z,25.47
2017-10-14T18:03:49.238Z,20.47
2017-10-14T18:06:17.854Z,24.30
2017-10-14T18:08:46.517Z,27.07
2017-10-14T18:11:15.242Z,32.83
2017-10-14T18:13:43.880Z,18.30
2017-10-14T18:16:12.558Z,37.03
2017-10-14T18:18:41.177Z,25.13
2017-10-14T18:21:09.862Z,29.53
2017-10-14T18:23:38.539Z,25.70
2017-10-14T18:26:07.164Z,25.47
2017-10-14T18:28:35.827Z,23.40
2017-10-14T18:31:04.449Z,20.37
2017-10-14T18:33:33.091Z,22.93
2017-10-14T18:36:01.787Z,28.80
2017-10-14T18:38:30.418Z,24.67
2017-10-14T18:40:59.043Z,21.77
2017-10-14T18:43:27.699Z,24.53
2017-10-14T18:45:56.313Z,30.37
2017-10-14T18:48:24.991Z,27.90
2017-10-14T18:50:53.703Z,24.80
2017-10-14T18:53:22.326Z,23.30
2017-10-14T18:55:50.997Z,27.93
2017-10-14T18:58:19.650Z,25.57
2017-10-14T19:00:48.314Z,21.90
2017-10-14T19:03:16.935Z,21.40
2017-10-14T19:05:45.546Z,18.17
2017-10-14T19:08:14.228Z,15.90
2017-10-14T19:10:42.871Z,22.23
2017-10-14T19:13:11.534Z,16.57
2017-10-14T19:15:40.196Z,18.40
2017-10-14T19:18:08.830Z,27.83
2017-10-14T19:20:37.512Z,22.10
2017-10-14T19:23:06.211Z,20.83
2017-10-14T19:25:34.826Z,23.93
2017-10-14T19:28:03.342Z,16.07
2017-10-14T19:30:32.024Z,17.87
2017-10-14T19:33:00.640Z,15.20
2017-10-14T19:35:29.256Z,22.47
2017-10-14T19:37:57.932Z,16.73
2017-10-14T19:40:26.605Z,23.37
2017-10-14T19:42:55.218Z,21.63
2017-10-14T19:45:23.907Z,19.77
2017-10-14T19:47:52.524Z,16.30
2017-10-14T19:50:21.214Z,17.23
2017-10-14T19:52:49.879Z,18.27
2017-10-14T19:55:18.506Z,15.73
2017-10-14T19:57:47.186Z,20.63
2017-10-14T20:00:15.810Z,24.40
2017-10-14T20:02:44.467Z,17.03
2017-10-14T20:05:13.108Z,13.27
2017-10-14T20:07:41.785Z,14.83
2017-10-14T20:10:10.410Z,21.23
2017-10-14T20:12:39.088Z,20.00
2017-10-14T20:15:07.731Z,24.10
2017-10-14T20:17:37.774Z,16.70
2017-10-14T20:20:06.391Z,25.93
2017-10-14T20:22:35.056Z,19.00
2017-10-14T20:25:03.739Z,16.30
2017-10-14T20:27:36.915Z,22.10
2017-10-14T20:30:05.432Z,17.57
2017-10-14T20:32:34.112Z,18.77
2017-10-14T20:35:02.723Z,11.43
2017-10-14T20:37:35.702Z,18.57
2017-10-14T20:40:04.375Z,20.80
2017-10-14T20:42:33.004Z,22.57
2017-10-14T20:45:01.676Z,21.37
2017-10-14T20:47:34.236Z,15.33
2017-10-14T20:50:02.916Z,19.30
2017-10-14T20:52:31.603Z,33.67
2017-10-14T20:55:00.227Z,13.20
2017-10-14T20:57:28.854Z,19.43
2017-10-14T20:59:57.523Z,15.67
2017-10-14T21:02:26.019Z,22.50
2017-10-14T21:04:54.704Z,18.93
2017-10-14T21:07:23.326Z,19.50
2017-10-14T21:09:52.178Z,16.37
2017-10-14T21:12:20.834Z,20.57
2017-10-14T21:14:49.510Z,14.67
2017-10-14T21:17:18.134Z,38.23
2017-10-14T21:19:46.831Z,20.10
2017-10-14T21:22:15.483Z,24.40
2017-10-14T21:24:44.099Z,19.33
2017-10-14T21:27:12.758Z,15.30
2017-10-14T21:29:41.384Z,15.07
2017-10-14T21:32:10.041Z,14.27
2017-10-14T21:34:38.579Z,15.83
2017-10-14T21:37:07.203Z,13.20
2017-10-14T21:39:35.805Z,13.87
2017-10-14T21:42:04.495Z,13.30
2017-10-14T21:44:33.364Z,18.70
2017-10-14T21:47:02.130Z,15.20
2017-10-14T21:49:30.754Z,19.40
2017-10-14T21:51:59.369Z,15.27
2017-10-14T21:54:28.044Z,12.50
2017-10-14T21:56:56.682Z,21.80
2017-10-14T21:59:25.338Z,17.83
2017-10-14T22:01:54.008Z,14.10
2017-10-14T22:04:22.621Z,23.17
2017-10-14T22:06:51.303Z,23.37
2017-10-14T22:09:19.951Z,25.13
2017-10-14T22:11:48.463Z,22.50
2017-10-14T22:14:17.147Z,16.00
2017-10-14T22:16:45.766Z,20.00
2017-10-14T22:19:14.463Z,14.80
2017-10-14T22:21:43.081Z,21.20
2017-10-14T22:24:11.749Z,17.47
2017-10-14T22:26:40.405Z,22.50
2017-10-14T22:29:09.037Z,17.27
2017-10-14T22:31:37.699Z,16.77
2017-10-14T22:34:06.315Z,20.00
2017-10-14T22:36:34.951Z,17.43
2017-10-14T22:39:03.647Z,26.37
2017-10-14T22:41:32.397Z,22.00
2017-10-14T22:44:01.055Z,19.13
2017-10-14T22:46:29.678Z,20.23
2017-10-14T22:48:58.336Z,24.83
2017-10-14T22:51:26.966Z,20.43
2017-10-14T22:53:55.631Z,21.20
2017-10-14T22:56:24.355Z,22.90
2017-10-14T22:58:52.983Z,24.53
2017-10-14T23:01:21.671Z,22.80
2017-10-14T23:03:50.299Z,18.87
2017-10-14T23:06:18.845Z,21.17
2017-10-14T23:08:47.471Z,30.20
2017-10-14T23:11:16.096Z,23.00
2017-10-14T23:13:44.783Z,20.00
2017-10-14T23:16:13.412Z,26.20
2017-10-14T23:18:42.061Z,25.37
2017-10-14T23:21:10.725Z,25.70
2017-10-14T23:23:39.358Z,24.63
2017-10-14T23:26:07.987Z,25.47
2017-10-14T23:28:36.655Z,21.40
2017-10-14T23:31:05.287Z,24.80
2017-10-14T23:33:33.951Z,24.20
2017-10-14T23:36:02.586Z,25.03
2017-10-14T23:38:31.211Z,20.40
2017-10-14T23:40:59.906Z,26.70
2017-10-14T23:43:28.534Z,25.40
2017-10-14T23:45:57.160Z,23.37
2017-10-14T23:48:25.838Z,31.93
2017-10-14T23:50:54.459Z,28.23
2017-10-14T23:53:23.118Z,28.03
2017-10-14T23:55:51.743Z,19.87
2017-10-14T23:58:20.357Z,26.73
